sensor_id;sensor_type;location;lat;lon;timestamp;P1;durP1;ratioP1;P2;durP2;ratioP2
68140;SDS011;54941;52.220;104.306;2023-07-08T00:01:26;15.88;;;13.77;;
68140;SDS011;54941;52.220;104.306;2023-07-08T00:03:52;17.08;;;13.13;;
68140;SDS011;54941;52.220;104.306;2023-07-08T00:06:19;18.70;;;12.98;;
68140;SDS011;54941;52.220;104.306;2023-07-08T00:08:48;18.35;;;14.35;;
68140;SDS011;54941;52.220;104.306;2023-07-08T00:11:15;15.77;;;13.18;;
68140;SDS011;54941;52.220;104.306;2023-07-08T00:13:43;16.98;;;13.13;;
68140;SDS011;54941;52.220;104.306;2023-07-08T00:16:11;18.17;;;14.70;;
68140;SDS011;54941;52.220;104.306;2023-07-08T00:18:38;19.25;;;14.07;;
68140;SDS011;54941;52.220;104.306;2023-07-08T00:21:18;21.52;;;16.27;;
68140;SDS011;54941;52.220;104.306;2023-07-08T00:23:47;21.98;;;16.55;;
68140;SDS011;54941;52.220;104.306;2023-07-08T00:26:31;23.65;;;17.42;;
68140;SDS011;54941;52.220;104.306;2023-07-08T00:29:07;22.33;;;16.92;;
68140;SDS011;54941;52.220;104.306;2023-07-08T00:31:59;22.67;;;17.67;;
68140;SDS011;54941;52.220;104.306;2023-07-08T00:34:49;20.77;;;14.85;;
68140;SDS011;54941;52.220;104.306;2023-07-08T00:40:46;17.60;;;14.82;;
68140;SDS011;54941;52.220;104.306;2023-07-08T00:43:30;17.50;;;13.45;;
68140;SDS011;54941;52.220;104.306;2023-07-08T00:46:18;15.38;;;13.25;;
68140;SDS011;54941;52.220;104.306;2023-07-08T00:52:29;15.38;;;13.00;;
68140;SDS011;54941;52.220;104.306;2023-07-08T00:54:56;15.27;;;13.18;;
68140;SDS011;54941;52.220;104.306;2023-07-08T00:57:35;15.32;;;12.98;;
68140;SDS011;54941;52.220;104.306;2023-07-08T01:00:12;16.58;;;14.05;;
68140;SDS011;54941;52.220;104.306;2023-07-08T01:02:43;18.25;;;15.70;;
68140;SDS011;54941;52.220;104.306;2023-07-08T01:05:14;17.40;;;15.23;;
68140;SDS011;54941;52.220;104.306;2023-07-08T01:07:44;18.45;;;15.90;;
68140;SDS011;54941;52.220;104.306;2023-07-08T01:10:14;17.80;;;15.90;;
68140;SDS011;54941;52.220;104.306;2023-07-08T01:12:45;18.33;;;16.33;;
68140;SDS011;54941;52.220;104.306;2023-07-08T01:15:14;18.83;;;16.83;;
68140;SDS011;54941;52.220;104.306;2023-07-08T01:17:43;19.92;;;17.83;;
68140;SDS011;54941;52.220;104.306;2023-07-08T01:20:35;20.98;;;18.42;;
68140;SDS011;54941;52.220;104.306;2023-07-08T01:23:27;22.17;;;19.70;;
68140;SDS011;54941;52.220;104.306;2023-07-08T01:25:53;21.27;;;19.08;;
68140;SDS011;54941;52.220;104.306;2023-07-08T01:28:19;20.10;;;18.10;;
68140;SDS011;54941;52.220;104.306;2023-07-08T01:30:46;18.13;;;16.23;;
68140;SDS011;54941;52.220;104.306;2023-07-08T01:33:20;19.38;;;17.23;;
68140;SDS011;54941;52.220;104.306;2023-07-08T01:35:58;19.33;;;17.33;;
68140;SDS011;54941;52.220;104.306;2023-07-08T01:38:25;16.65;;;15.05;;
68140;SDS011;54941;52.220;104.306;2023-07-08T01:40:54;17.00;;;15.32;;
68140;SDS011;54941;52.220;104.306;2023-07-08T01:43:22;16.40;;;14.65;;
68140;SDS011;54941;52.220;104.306;2023-07-08T01:45:48;15.15;;;13.65;;
68140;SDS011;54941;52.220;104.306;2023-07-08T01:48:18;15.20;;;13.70;;
68140;SDS011;54941;52.220;104.306;2023-07-08T01:50:49;16.13;;;14.52;;
68140;SDS011;54941;52.220;104.306;2023-07-08T01:53:21;16.98;;;15.35;;
68140;SDS011;54941;52.220;104.306;2023-07-08T01:58:21;15.73;;;14.05;;
68140;SDS011;54941;52.220;104.306;2023-07-08T02:00:48;18.00;;;16.10;;
68140;SDS011;54941;52.220;104.306;2023-07-08T02:03:14;18.38;;;16.63;;
68140;SDS011;54941;52.220;104.306;2023-07-08T02:05:40;17.48;;;15.55;;
68140;SDS011;54941;52.220;104.306;2023-07-08T02:08:07;17.80;;;16.00;;
68140;SDS011;54941;52.220;104.306;2023-07-08T02:10:33;18.85;;;16.95;;
68140;SDS011;54941;52.220;104.306;2023-07-08T02:13:01;19.27;;;16.55;;
68140;SDS011;54941;52.220;104.306;2023-07-08T02:15:28;18.67;;;16.67;;
68140;SDS011;54941;52.220;104.306;2023-07-08T02:17:55;18.40;;;16.50;;
68140;SDS011;54941;52.220;104.306;2023-07-08T02:20:21;19.63;;;16.40;;
68140;SDS011;54941;52.220;104.306;2023-07-08T02:22:48;19.13;;;16.50;;
68140;SDS011;54941;52.220;104.306;2023-07-08T02:25:14;18.67;;;16.38;;
68140;SDS011;54941;52.220;104.306;2023-07-08T02:27:43;19.80;;;17.83;;
68140;SDS011;54941;52.220;104.306;2023-07-08T02:30:11;20.17;;;17.95;;
68140;SDS011;54941;52.220;104.306;2023-07-08T02:32:37;20.55;;;17.67;;
68140;SDS011;54941;52.220;104.306;2023-07-08T02:35:04;19.02;;;15.90;;
68140;SDS011;54941;52.220;104.306;2023-07-08T02:37:31;18.33;;;16.08;;
68140;SDS011;54941;52.220;104.306;2023-07-08T02:39:57;17.70;;;15.90;;
68140;SDS011;54941;52.220;104.306;2023-07-08T02:42:24;16.55;;;14.85;;
68140;SDS011;54941;52.220;104.306;2023-07-08T02:44:50;22.67;;;20.30;;
68140;SDS011;54941;52.220;104.306;2023-07-08T02:47:18;23.52;;;21.02;;
68140;SDS011;54941;52.220;104.306;2023-07-08T02:49:44;27.15;;;22.45;;
68140;SDS011;54941;52.220;104.306;2023-07-08T02:52:11;26.80;;;23.15;;
68140;SDS011;54941;52.220;104.306;2023-07-08T02:54:37;24.88;;;22.02;;
68140;SDS011;54941;52.220;104.306;2023-07-08T02:57:03;22.02;;;18.88;;
68140;SDS011;54941;52.220;104.306;2023-07-08T02:59:30;24.45;;;21.17;;
68140;SDS011;54941;52.220;104.306;2023-07-08T03:01:56;26.73;;;23.33;;
68140;SDS011;54941;52.220;104.306;2023-07-08T03:04:24;28.20;;;25.10;;
68140;SDS011;54941;52.220;104.306;2023-07-08T03:06:50;27.00;;;24.15;;
68140;SDS011;54941;52.220;104.306;2023-07-08T03:09:17;24.60;;;21.00;;
68140;SDS011;54941;52.220;104.306;2023-07-08T03:11:43;28.17;;;21.15;;
68140;SDS011;54941;52.220;104.306;2023-07-08T03:14:10;22.70;;;20.10;;
68140;SDS011;54941;52.220;104.306;2023-07-08T03:16:36;21.80;;;17.80;;
68140;SDS011;54941;52.220;104.306;2023-07-08T03:19:03;21.30;;;19.08;;
68140;SDS011;54941;52.220;104.306;2023-07-08T03:21:30;18.98;;;16.98;;
68140;SDS011;54941;52.220;104.306;2023-07-08T03:23:57;16.98;;;14.93;;
68140;SDS011;54941;52.220;104.306;2023-07-08T03:26:24;19.75;;;17.70;;
68140;SDS011;54941;52.220;104.306;2023-07-08T03:28:52;18.80;;;16.88;;
68140;SDS011;54941;52.220;104.306;2023-07-08T03:31:18;18.58;;;16.17;;
68140;SDS011;54941;52.220;104.306;2023-07-08T03:33:44;16.48;;;14.77;;
68140;SDS011;54941;52.220;104.306;2023-07-08T03:36:11;18.33;;;16.33;;
68140;SDS011;54941;52.220;104.306;2023-07-08T03:38:41;18.67;;;16.13;;
68140;SDS011;54941;52.220;104.306;2023-07-08T03:41:07;17.55;;;15.73;;
68140;SDS011;54941;52.220;104.306;2023-07-08T03:43:33;18.23;;;16.38;;
68140;SDS011;54941;52.220;104.306;2023-07-08T03:46:00;16.45;;;14.75;;
68140;SDS011;54941;52.220;104.306;2023-07-08T03:48:26;16.33;;;14.70;;
68140;SDS011;54941;52.220;104.306;2023-07-08T03:50:52;15.82;;;14.23;;
68140;SDS011;54941;52.220;104.306;2023-07-08T03:53:18;13.82;;;12.45;;
68140;SDS011;54941;52.220;104.306;2023-07-08T03:55:46;15.65;;;14.05;;
68140;SDS011;54941;52.220;104.306;2023-07-08T03:58:13;15.50;;;13.93;;
68140;SDS011;54941;52.220;104.306;2023-07-08T04:00:39;15.55;;;13.95;;
68140;SDS011;54941;52.220;104.306;2023-07-08T04:03:06;15.50;;;13.90;;
68140;SDS011;54941;52.220;104.306;2023-07-08T04:05:36;16.20;;;14.32;;
68140;SDS011;54941;52.220;104.306;2023-07-08T04:08:02;15.05;;;13.55;;
68140;SDS011;54941;52.220;104.306;2023-07-08T04:10:28;15.68;;;14.07;;
68140;SDS011;54941;52.220;104.306;2023-07-08T04:12:56;15.48;;;13.88;;
68140;SDS011;54941;52.220;104.306;2023-07-08T04:15:22;15.55;;;13.95;;
68140;SDS011;54941;52.220;104.306;2023-07-08T04:17:49;14.98;;;13.48;;
68140;SDS011;54941;52.220;104.306;2023-07-08T04:20:16;15.40;;;13.48;;
68140;SDS011;54941;52.220;104.306;2023-07-08T04:22:46;16.35;;;14.60;;
68140;SDS011;54941;52.220;104.306;2023-07-08T04:25:12;15.05;;;13.55;;
68140;SDS011;54941;52.220;104.306;2023-07-08T04:27:39;13.18;;;11.88;;
68140;SDS011;54941;52.220;104.306;2023-07-08T04:30:09;12.57;;;11.10;;
68140;SDS011;54941;52.220;104.306;2023-07-08T04:32:45;12.15;;;10.23;;
68140;SDS011;54941;52.220;104.306;2023-07-08T04:35:11;9.20;;;8.30;;
68140;SDS011;54941;52.220;104.306;2023-07-08T04:37:38;9.27;;;8.27;;
68140;SDS011;54941;52.220;104.306;2023-07-08T04:40:05;7.20;;;5.28;;
68140;SDS011;54941;52.220;104.306;2023-07-08T04:42:38;7.63;;;6.93;;
68140;SDS011;54941;52.220;104.306;2023-07-08T04:45:05;6.90;;;6.30;;
68140;SDS011;54941;52.220;104.306;2023-07-08T04:47:33;7.10;;;6.40;;
68140;SDS011;54941;52.220;104.306;2023-07-08T04:49:59;6.65;;;6.05;;
68140;SDS011;54941;52.220;104.306;2023-07-08T04:52:25;7.03;;;6.32;;
68140;SDS011;54941;52.220;104.306;2023-07-08T04:54:52;6.35;;;5.07;;
68140;SDS011;54941;52.220;104.306;2023-07-08T04:57:18;7.80;;;5.82;;
68140;SDS011;54941;52.220;104.306;2023-07-08T04:59:45;7.63;;;6.20;;
68140;SDS011;54941;52.220;104.306;2023-07-08T05:02:12;7.93;;;6.70;;
68140;SDS011;54941;52.220;104.306;2023-07-08T05:04:39;7.32;;;6.15;;
68140;SDS011;54941;52.220;104.306;2023-07-08T05:07:06;4.50;;;3.88;;
68140;SDS011;54941;52.220;104.306;2023-07-08T05:09:32;4.35;;;3.95;;
68140;SDS011;54941;52.220;104.306;2023-07-08T05:11:58;4.53;;;3.85;;
68140;SDS011;54941;52.220;104.306;2023-07-08T05:14:25;6.30;;;4.90;;
68140;SDS011;54941;52.220;104.306;2023-07-08T05:16:51;5.70;;;4.63;;
68140;SDS011;54941;52.220;104.306;2023-07-08T05:19:17;5.78;;;5.07;;
68140;SDS011;54941;52.220;104.306;2023-07-08T05:21:45;5.90;;;5.15;;
68140;SDS011;54941;52.220;104.306;2023-07-08T05:24:11;5.00;;;4.20;;
68140;SDS011;54941;52.220;104.306;2023-07-08T05:26:38;6.10;;;5.15;;
68140;SDS011;54941;52.220;104.306;2023-07-08T05:29:04;6.15;;;5.45;;
68140;SDS011;54941;52.220;104.306;2023-07-08T05:31:30;8.75;;;6.43;;
68140;SDS011;54941;52.220;104.306;2023-07-08T05:33:56;8.15;;;7.05;;
68140;SDS011;54941;52.220;104.306;2023-07-08T05:36:22;7.57;;;6.10;;
68140;SDS011;54941;52.220;104.306;2023-07-08T05:38:50;9.07;;;7.32;;
68140;SDS011;54941;52.220;104.306;2023-07-08T05:41:17;7.90;;;7.10;;
68140;SDS011;54941;52.220;104.306;2023-07-08T05:43:43;9.27;;;8.27;;
68140;SDS011;54941;52.220;104.306;2023-07-08T05:46:09;9.77;;;7.47;;
68140;SDS011;54941;52.220;104.306;2023-07-08T05:48:35;8.57;;;7.13;;
68140;SDS011;54941;52.220;104.306;2023-07-08T05:51:02;7.95;;;7.13;;
68140;SDS011;54941;52.220;104.306;2023-07-08T05:53:28;8.15;;;5.82;;
68140;SDS011;54941;52.220;104.306;2023-07-08T05:55:56;8.13;;;6.50;;
68140;SDS011;54941;52.220;104.306;2023-07-08T05:58:22;7.90;;;7.00;;
68140;SDS011;54941;52.220;104.306;2023-07-08T06:00:54;7.15;;;6.45;;
68140;SDS011;54941;52.220;104.306;2023-07-08T06:03:21;6.85;;;6.15;;
68140;SDS011;54941;52.220;104.306;2023-07-08T06:05:47;6.82;;;6.13;;
68140;SDS011;54941;52.220;104.306;2023-07-08T06:08:13;6.82;;;6.13;;
68140;SDS011;54941;52.220;104.306;2023-07-08T06:10:41;6.05;;;4.93;;
68140;SDS011;54941;52.220;104.306;2023-07-08T06:13:09;7.72;;;6.93;;
68140;SDS011;54941;52.220;104.306;2023-07-08T06:15:36;8.70;;;6.80;;
68140;SDS011;54941;52.220;104.306;2023-07-08T06:18:02;7.70;;;6.90;;
68140;SDS011;54941;52.220;104.306;2023-07-08T06:20:28;7.68;;;6.97;;
68140;SDS011;54941;52.220;104.306;2023-07-08T06:22:54;7.82;;;6.38;;
68140;SDS011;54941;52.220;104.306;2023-07-08T06:25:21;6.90;;;6.20;;
68140;SDS011;54941;52.220;104.306;2023-07-08T06:27:47;5.75;;;5.10;;
68140;SDS011;54941;52.220;104.306;2023-07-08T06:30:15;6.35;;;5.57;;
68140;SDS011;54941;52.220;104.306;2023-07-08T06:32:41;5.22;;;4.50;;
68140;SDS011;54941;52.220;104.306;2023-07-08T06:35:08;6.20;;;5.38;;
68140;SDS011;54941;52.220;104.306;2023-07-08T06:37:34;4.82;;;4.32;;
68140;SDS011;54941;52.220;104.306;2023-07-08T06:40:01;5.68;;;4.43;;
68140;SDS011;54941;52.220;104.306;2023-07-08T06:42:27;5.20;;;3.72;;
68140;SDS011;54941;52.220;104.306;2023-07-08T06:44:54;5.50;;;5.00;;
68140;SDS011;54941;52.220;104.306;2023-07-08T06:47:22;6.00;;;5.40;;
68140;SDS011;54941;52.220;104.306;2023-07-08T06:49:48;6.40;;;5.80;;
68140;SDS011;54941;52.220;104.306;2023-07-08T06:52:14;7.00;;;6.30;;
68140;SDS011;54941;52.220;104.306;2023-07-08T06:54:41;7.38;;;6.35;;
68140;SDS011;54941;52.220;104.306;2023-07-08T06:57:08;6.85;;;6.13;;
68140;SDS011;54941;52.220;104.306;2023-07-08T06:59:34;7.97;;;6.60;;
68140;SDS011;54941;52.220;104.306;2023-07-08T07:02:01;10.68;;;7.47;;
68140;SDS011;54941;52.220;104.306;2023-07-08T07:04:29;8.07;;;7.15;;
68140;SDS011;54941;52.220;104.306;2023-07-08T07:06:56;8.60;;;6.15;;
68140;SDS011;54941;52.220;104.306;2023-07-08T07:09:22;8.60;;;6.15;;
68140;SDS011;54941;52.220;104.306;2023-07-08T07:11:48;8.15;;;7.35;;
68140;SDS011;54941;52.220;104.306;2023-07-08T07:14:15;7.20;;;6.50;;
68140;SDS011;54941;52.220;104.306;2023-07-08T07:16:41;8.45;;;6.22;;
68140;SDS011;54941;52.220;104.306;2023-07-08T07:19:08;5.82;;;5.10;;
68140;SDS011;54941;52.220;104.306;2023-07-08T07:21:35;6.15;;;5.40;;
68140;SDS011;54941;52.220;104.306;2023-07-08T07:24:02;6.75;;;6.00;;
68140;SDS011;54941;52.220;104.306;2023-07-08T07:26:28;7.20;;;6.18;;
68140;SDS011;54941;52.220;104.306;2023-07-08T07:28:54;5.72;;;5.10;;
68140;SDS011;54941;52.220;104.306;2023-07-08T07:31:20;6.05;;;4.88;;
68140;SDS011;54941;52.220;104.306;2023-07-08T07:33:47;6.20;;;5.60;;
68140;SDS011;54941;52.220;104.306;2023-07-08T07:36:13;7.45;;;5.47;;
68140;SDS011;54941;52.220;104.306;2023-07-08T07:38:41;7.05;;;5.90;;
68140;SDS011;54941;52.220;104.306;2023-07-08T07:41:07;6.80;;;6.00;;
68140;SDS011;54941;52.220;104.306;2023-07-08T07:43:33;6.97;;;6.28;;
68140;SDS011;54941;52.220;104.306;2023-07-08T07:46:00;7.32;;;6.32;;
68140;SDS011;54941;52.220;104.306;2023-07-08T07:48:26;7.70;;;6.60;;
68140;SDS011;54941;52.220;104.306;2023-07-08T07:50:52;7.20;;;6.50;;
68140;SDS011;54941;52.220;104.306;2023-07-08T07:53:19;7.25;;;6.05;;
68140;SDS011;54941;52.220;104.306;2023-07-08T07:55:46;6.60;;;6.00;;
68140;SDS011;54941;52.220;104.306;2023-07-08T07:58:13;6.82;;;5.97;;
68140;SDS011;54941;52.220;104.306;2023-07-08T08:00:39;6.65;;;5.72;;
68140;SDS011;54941;52.220;104.306;2023-07-08T08:03:05;6.10;;;4.72;;
68140;SDS011;54941;52.220;104.306;2023-07-08T08:05:32;6.57;;;5.88;;
68140;SDS011;54941;52.220;104.306;2023-07-08T08:07:58;5.80;;;5.20;;
68140;SDS011;54941;52.220;104.306;2023-07-08T08:10:24;5.88;;;5.28;;
68140;SDS011;54941;52.220;104.306;2023-07-08T08:12:52;6.10;;;5.50;;
68140;SDS011;54941;52.220;104.306;2023-07-08T08:15:19;5.95;;;4.85;;
68140;SDS011;54941;52.220;104.306;2023-07-08T08:17:47;4.10;;;3.70;;
68140;SDS011;54941;52.220;104.306;2023-07-08T08:20:13;4.65;;;4.03;;
68140;SDS011;54941;52.220;104.306;2023-07-08T08:22:39;5.28;;;4.40;;
68140;SDS011;54941;52.220;104.306;2023-07-08T08:25:06;4.88;;;4.10;;
68140;SDS011;54941;52.220;104.306;2023-07-08T08:27:36;5.20;;;4.15;;
68140;SDS011;54941;52.220;104.306;2023-07-08T08:30:24;5.07;;;4.55;;
68140;SDS011;54941;52.220;104.306;2023-07-08T08:35:38;5.10;;;4.20;;
68140;SDS011;54941;52.220;104.306;2023-07-08T08:38:04;6.22;;;4.60;;
68140;SDS011;54941;52.220;104.306;2023-07-08T08:40:30;4.88;;;4.38;;
68140;SDS011;54941;52.220;104.306;2023-07-08T08:42:58;5.97;;;5.00;;
68140;SDS011;54941;52.220;104.306;2023-07-08T08:45:28;6.53;;;5.45;;
68140;SDS011;54941;52.220;104.306;2023-07-08T08:47:59;6.30;;;5.70;;
68140;SDS011;54941;52.220;104.306;2023-07-08T08:50:31;6.03;;;5.40;;
68140;SDS011;54941;52.220;104.306;2023-07-08T08:53:02;6.95;;;5.70;;
68140;SDS011;54941;52.220;104.306;2023-07-08T08:55:31;6.95;;;6.25;;
68140;SDS011;54941;52.220;104.306;2023-07-08T08:58:00;6.60;;;5.80;;
68140;SDS011;54941;52.220;104.306;2023-07-08T09:00:41;6.63;;;5.75;;
68140;SDS011;54941;52.220;104.306;2023-07-08T09:03:17;7.18;;;6.32;;
68140;SDS011;54941;52.220;104.306;2023-07-08T09:05:50;7.30;;;6.30;;
68140;SDS011;54941;52.220;104.306;2023-07-08T09:08:17;7.32;;;6.63;;
68140;SDS011;54941;52.220;104.306;2023-07-08T09:10:49;7.88;;;6.45;;
68140;SDS011;54941;52.220;104.306;2023-07-08T09:13:22;7.25;;;6.47;;
68140;SDS011;54941;52.220;104.306;2023-07-08T09:15:57;6.85;;;6.15;;
68140;SDS011;54941;52.220;104.306;2023-07-08T09:18:32;7.18;;;6.47;;
68140;SDS011;54941;52.220;104.306;2023-07-08T09:21:03;6.10;;;5.50;;
68140;SDS011;54941;52.220;104.306;2023-07-08T09:23:39;6.57;;;5.68;;
68140;SDS011;54941;52.220;104.306;2023-07-08T09:26:07;6.75;;;5.32;;
68140;SDS011;54941;52.220;104.306;2023-07-08T09:28:41;6.40;;;5.80;;
68140;SDS011;54941;52.220;104.306;2023-07-08T09:31:14;7.10;;;6.15;;
68140;SDS011;54941;52.220;104.306;2023-07-08T09:33:48;7.20;;;6.45;;
68140;SDS011;54941;52.220;104.306;2023-07-08T09:36:17;7.53;;;6.32;;
68140;SDS011;54941;52.220;104.306;2023-07-08T09:38:47;7.93;;;7.00;;
68140;SDS011;54941;52.220;104.306;2023-07-08T09:41:17;8.00;;;7.20;;
68140;SDS011;54941;52.220;104.306;2023-07-08T09:44:02;7.57;;;6.82;;
68140;SDS011;54941;52.220;104.306;2023-07-08T09:46:40;8.20;;;7.40;;
68140;SDS011;54941;52.220;104.306;2023-07-08T09:49:12;7.72;;;6.57;;
68140;SDS011;54941;52.220;104.306;2023-07-08T09:51:42;9.20;;;7.38;;
68140;SDS011;54941;52.220;104.306;2023-07-08T09:54:08;8.15;;;7.28;;
68140;SDS011;54941;52.220;104.306;2023-07-08T09:56:34;9.32;;;7.07;;
68140;SDS011;54941;52.220;104.306;2023-07-08T09:59:04;8.32;;;7.15;;
68140;SDS011;54941;52.220;104.306;2023-07-08T10:01:30;6.78;;;6.05;;
68140;SDS011;54941;52.220;104.306;2023-07-08T10:03:59;7.10;;;6.35;;
68140;SDS011;54941;52.220;104.306;2023-07-08T10:06:27;6.20;;;5.60;;
68140;SDS011;54941;52.220;104.306;2023-07-08T10:09:00;7.20;;;6.50;;
68140;SDS011;54941;52.220;104.306;2023-07-08T10:11:29;7.78;;;6.50;;
68140;SDS011;54941;52.220;104.306;2023-07-08T10:13:59;7.95;;;6.55;;
68140;SDS011;54941;52.220;104.306;2023-07-08T10:16:30;9.10;;;7.28;;
68140;SDS011;54941;52.220;104.306;2023-07-08T10:19:04;8.48;;;7.30;;
68140;SDS011;54941;52.220;104.306;2023-07-08T10:21:39;10.65;;;9.40;;
68140;SDS011;54941;52.220;104.306;2023-07-08T10:24:18;11.73;;;9.82;;
68140;SDS011;54941;52.220;104.306;2023-07-08T10:26:54;12.45;;;10.65;;
68140;SDS011;54941;52.220;104.306;2023-07-08T10:29:32;10.55;;;9.18;;
68140;SDS011;54941;52.220;104.306;2023-07-08T10:32:08;12.52;;;9.57;;
68140;SDS011;54941;52.220;104.306;2023-07-08T10:34:45;16.40;;;11.90;;
68140;SDS011;54941;52.220;104.306;2023-07-08T10:37:18;23.90;;;16.40;;
68140;SDS011;54941;52.220;104.306;2023-07-08T10:39:55;29.02;;;19.38;;
68140;SDS011;54941;52.220;104.306;2023-07-08T10:42:40;18.73;;;14.27;;
68140;SDS011;54941;52.220;104.306;2023-07-08T10:45:19;21.60;;;16.40;;
68140;SDS011;54941;52.220;104.306;2023-07-08T10:47:56;25.20;;;18.17;;
68140;SDS011;54941;52.220;104.306;2023-07-08T10:50:39;22.33;;;19.02;;
68140;SDS011;54941;52.220;104.306;2023-07-08T10:53:28;14.70;;;12.98;;
68140;SDS011;54941;52.220;104.306;2023-07-08T10:56:19;10.27;;;8.90;;
68140;SDS011;54941;52.220;104.306;2023-07-08T10:59:03;17.23;;;12.85;;
68140;SDS011;54941;52.220;104.306;2023-07-08T11:01:42;25.35;;;19.58;;
68140;SDS011;54941;52.220;104.306;2023-07-08T11:04:29;35.92;;;27.90;;
68140;SDS011;54941;52.220;104.306;2023-07-08T11:07:12;26.83;;;21.20;;
68140;SDS011;54941;52.220;104.306;2023-07-08T11:09:48;24.17;;;21.38;;
68140;SDS011;54941;52.220;104.306;2023-07-08T11:12:20;19.05;;;16.52;;
68140;SDS011;54941;52.220;104.306;2023-07-08T11:14:54;20.90;;;15.98;;
68140;SDS011;54941;52.220;104.306;2023-07-08T11:17:30;19.25;;;15.30;;
68140;SDS011;54941;52.220;104.306;2023-07-08T11:20:02;21.80;;;17.90;;
68140;SDS011;54941;52.220;104.306;2023-07-08T11:25:50;22.05;;;15.10;;
68140;SDS011;54941;52.220;104.306;2023-07-08T11:28:27;22.23;;;15.73;;
68140;SDS011;54941;52.220;104.306;2023-07-08T11:30:54;22.65;;;16.83;;
68140;SDS011;54941;52.220;104.306;2023-07-08T11:33:26;20.70;;;15.25;;
68140;SDS011;54941;52.220;104.306;2023-07-08T11:35:54;24.92;;;16.35;;
68140;SDS011;54941;52.220;104.306;2023-07-08T11:38:23;23.60;;;16.13;;
68140;SDS011;54941;52.220;104.306;2023-07-08T11:40:51;21.60;;;16.15;;
68140;SDS011;54941;52.220;104.306;2023-07-08T11:43:19;18.45;;;13.23;;
68140;SDS011;54941;52.220;104.306;2023-07-08T11:45:48;15.27;;;10.77;;
68140;SDS011;54941;52.220;104.306;2023-07-08T11:48:16;13.73;;;9.02;;
68140;SDS011;54941;52.220;104.306;2023-07-08T11:50:47;13.30;;;8.57;;
68140;SDS011;54941;52.220;104.306;2023-07-08T11:56:23;12.13;;;7.82;;
68140;SDS011;54941;52.220;104.306;2023-07-08T11:58:58;10.60;;;8.07;;
68140;SDS011;54941;52.220;104.306;2023-07-08T12:01:32;10.32;;;8.98;;
68140;SDS011;54941;52.220;104.306;2023-07-08T12:04:15;10.85;;;8.77;;
68140;SDS011;54941;52.220;104.306;2023-07-08T12:06:51;11.27;;;8.63;;
68140;SDS011;54941;52.220;104.306;2023-07-08T12:09:22;12.13;;;8.45;;
68140;SDS011;54941;52.220;104.306;2023-07-08T12:11:54;10.60;;;8.85;;
68140;SDS011;54941;52.220;104.306;2023-07-08T12:14:24;9.50;;;8.00;;
68140;SDS011;54941;52.220;104.306;2023-07-08T12:19:20;10.63;;;7.50;;
68140;SDS011;54941;52.220;104.306;2023-07-08T12:21:49;10.65;;;7.93;;
68140;SDS011;54941;52.220;104.306;2023-07-08T12:24:15;10.82;;;8.02;;
68140;SDS011;54941;52.220;104.306;2023-07-08T12:26:43;11.63;;;8.57;;
68140;SDS011;54941;52.220;104.306;2023-07-08T12:29:12;12.20;;;9.27;;
68140;SDS011;54941;52.220;104.306;2023-07-08T12:31:39;12.20;;;8.88;;
68140;SDS011;54941;52.220;104.306;2023-07-08T12:34:08;12.07;;;8.07;;
68140;SDS011;54941;52.220;104.306;2023-07-08T12:36:38;10.85;;;8.60;;
68140;SDS011;54941;52.220;104.306;2023-07-08T12:39:05;11.00;;;8.45;;
68140;SDS011;54941;52.220;104.306;2023-07-08T12:41:34;10.50;;;8.23;;
68140;SDS011;54941;52.220;104.306;2023-07-08T12:44:01;10.73;;;8.85;;
68140;SDS011;54941;52.220;104.306;2023-07-08T12:46:29;10.93;;;8.35;;
68140;SDS011;54941;52.220;104.306;2023-07-08T12:48:55;10.75;;;8.65;;
68140;SDS011;54941;52.220;104.306;2023-07-08T12:51:23;11.30;;;8.98;;
68140;SDS011;54941;52.220;104.306;2023-07-08T12:53:51;10.30;;;7.72;;
68140;SDS011;54941;52.220;104.306;2023-07-08T12:56:18;10.80;;;7.47;;
68140;SDS011;54941;52.220;104.306;2023-07-08T12:58:49;12.32;;;8.18;;
68140;SDS011;54941;52.220;104.306;2023-07-08T13:01:17;12.30;;;9.07;;
68140;SDS011;54941;52.220;104.306;2023-07-08T13:03:48;14.98;;;11.10;;
68140;SDS011;54941;52.220;104.306;2023-07-08T13:06:17;12.70;;;10.52;;
68140;SDS011;54941;52.220;104.306;2023-07-08T13:08:49;15.23;;;10.63;;
68140;SDS011;54941;52.220;104.306;2023-07-08T13:11:16;12.18;;;9.95;;
68140;SDS011;54941;52.220;104.306;2023-07-08T13:13:47;12.13;;;8.95;;
68140;SDS011;54941;52.220;104.306;2023-07-08T13:16:16;14.45;;;9.35;;
68140;SDS011;54941;52.220;104.306;2023-07-08T13:18:43;11.25;;;7.60;;
68140;SDS011;54941;52.220;104.306;2023-07-08T13:21:12;9.50;;;8.05;;
68140;SDS011;54941;52.220;104.306;2023-07-08T13:23:40;10.05;;;8.05;;
68140;SDS011;54941;52.220;104.306;2023-07-08T13:26:12;11.00;;;8.15;;
68140;SDS011;54941;52.220;104.306;2023-07-08T13:28:39;9.65;;;7.35;;
68140;SDS011;54941;52.220;104.306;2023-07-08T13:31:13;11.40;;;8.20;;
68140;SDS011;54941;52.220;104.306;2023-07-08T13:33:44;13.77;;;9.50;;
68140;SDS011;54941;52.220;104.306;2023-07-08T13:36:13;13.38;;;9.20;;
68140;SDS011;54941;52.220;104.306;2023-07-08T13:38:41;17.88;;;13.85;;
68140;SDS011;54941;52.220;104.306;2023-07-08T13:41:08;15.82;;;11.32;;
68140;SDS011;54941;52.220;104.306;2023-07-08T13:43:35;15.95;;;11.02;;
68140;SDS011;54941;52.220;104.306;2023-07-08T13:46:04;14.18;;;9.85;;
68140;SDS011;54941;52.220;104.306;2023-07-08T13:48:33;16.02;;;11.60;;
68140;SDS011;54941;52.220;104.306;2023-07-08T13:51:05;15.10;;;10.75;;
68140;SDS011;54941;52.220;104.306;2023-07-08T13:53:41;13.75;;;10.02;;
68140;SDS011;54941;52.220;104.306;2023-07-08T13:56:13;14.25;;;9.23;;
68140;SDS011;54941;52.220;104.306;2023-07-08T13:58:42;12.15;;;8.68;;
68140;SDS011;54941;52.220;104.306;2023-07-08T14:01:09;12.25;;;9.13;;
68140;SDS011;54941;52.220;104.306;2023-07-08T14:03:41;12.65;;;9.18;;
68140;SDS011;54941;52.220;104.306;2023-07-08T14:06:11;14.95;;;9.80;;
68140;SDS011;54941;52.220;104.306;2023-07-08T14:08:40;15.02;;;10.38;;
68140;SDS011;54941;52.220;104.306;2023-07-08T14:11:07;16.00;;;12.52;;
68140;SDS011;54941;52.220;104.306;2023-07-08T14:13:33;15.80;;;11.00;;
68140;SDS011;54941;52.220;104.306;2023-07-08T14:15:59;16.30;;;11.32;;
68140;SDS011;54941;52.220;104.306;2023-07-08T14:18:26;12.93;;;9.63;;
68140;SDS011;54941;52.220;104.306;2023-07-08T14:20:53;11.13;;;8.90;;
68140;SDS011;54941;52.220;104.306;2023-07-08T14:23:19;13.38;;;10.60;;
68140;SDS011;54941;52.220;104.306;2023-07-08T14:25:47;20.42;;;11.52;;
68140;SDS011;54941;52.220;104.306;2023-07-08T14:28:13;17.17;;;11.40;;
68140;SDS011;54941;52.220;104.306;2023-07-08T14:30:41;15.48;;;10.73;;
68140;SDS011;54941;52.220;104.306;2023-07-08T14:33:10;15.60;;;11.25;;
68140;SDS011;54941;52.220;104.306;2023-07-08T14:35:37;17.63;;;10.52;;
68140;SDS011;54941;52.220;104.306;2023-07-08T14:38:08;18.63;;;11.15;;
68140;SDS011;54941;52.220;104.306;2023-07-08T14:40:37;18.35;;;11.45;;
68140;SDS011;54941;52.220;104.306;2023-07-08T14:43:06;14.32;;;10.18;;